sensor_id;sensor_type;location;lat;lon;timestamp;P1;durP1;ratioP1;P2;durP2;ratioP2
74335;SDS011;62755;-33.398;-70.572;2023-08-06T00:01:23;51.75;;;29.45;;
74335;SDS011;62755;-33.398;-70.572;2023-08-06T00:03:53;50.20;;;27.67;;
74335;SDS011;62755;-33.398;-70.572;2023-08-06T00:06:22;53.55;;;26.30;;
74335;SDS011;62755;-33.398;-70.572;2023-08-06T00:08:54;48.95;;;25.58;;
74335;SDS011;62755;-33.398;-70.572;2023-08-06T00:11:24;39.38;;;23.55;;
74335;SDS011;62755;-33.398;-70.572;2023-08-06T00:13:53;40.13;;;22.88;;
74335;SDS011;62755;-33.398;-70.572;2023-08-06T00:16:23;55.50;;;25.40;;
74335;SDS011;62755;-33.398;-70.572;2023-08-06T00:18:52;42.67;;;22.50;;
74335;SDS011;62755;-33.398;-70.572;2023-08-06T00:21:22;36.58;;;20.88;;
74335;SDS011;62755;-33.398;-70.572;2023-08-06T00:23:51;51.80;;;27.00;;
74335;SDS011;62755;-33.398;-70.572;2023-08-06T00:26:23;42.45;;;22.33;;
74335;SDS011;62755;-33.398;-70.572;2023-08-06T00:28:52;61.33;;;31.45;;
74335;SDS011;62755;-33.398;-70.572;2023-08-06T00:31:22;54.63;;;30.45;;
74335;SDS011;62755;-33.398;-70.572;2023-08-06T00:33:51;54.15;;;30.23;;
74335;SDS011;62755;-33.398;-70.572;2023-08-06T00:36:21;56.85;;;29.63;;
74335;SDS011;62755;-33.398;-70.572;2023-08-06T00:38:50;46.78;;;26.48;;
74335;SDS011;62755;-33.398;-70.572;2023-08-06T00:41:23;53.38;;;28.45;;
74335;SDS011;62755;-33.398;-70.572;2023-08-06T00:43:53;48.67;;;28.77;;
74335;SDS011;62755;-33.398;-70.572;2023-08-06T00:46:22;49.75;;;28.23;;
74335;SDS011;62755;-33.398;-70.572;2023-08-06T00:48:52;56.70;;;32.47;;
74335;SDS011;62755;-33.398;-70.572;2023-08-06T00:51:22;68.65;;;38.20;;
74335;SDS011;62755;-33.398;-70.572;2023-08-06T00:53:52;49.15;;;26.77;;
74335;SDS011;62755;-33.398;-70.572;2023-08-06T00:56:24;50.65;;;26.48;;
74335;SDS011;62755;-33.398;-70.572;2023-08-06T00:58:54;45.90;;;26.10;;
74335;SDS011;62755;-33.398;-70.572;2023-08-06T01:01:24;47.67;;;24.73;;
74335;SDS011;62755;-33.398;-70.572;2023-08-06T01:03:53;45.00;;;25.13;;
74335;SDS011;62755;-33.398;-70.572;2023-08-06T01:06:28;41.63;;;23.70;;
74335;SDS011;62755;-33.398;-70.572;2023-08-06T01:09:11;44.72;;;24.65;;
74335;SDS011;62755;-33.398;-70.572;2023-08-06T01:11:54;45.95;;;23.38;;
74335;SDS011;62755;-33.398;-70.572;2023-08-06T01:14:33;43.47;;;23.73;;
74335;SDS011;62755;-33.398;-70.572;2023-08-06T01:17:13;39.20;;;22.92;;
74335;SDS011;62755;-33.398;-70.572;2023-08-06T01:19:43;45.30;;;25.23;;
74335;SDS011;62755;-33.398;-70.572;2023-08-06T01:22:15;53.60;;;28.80;;
74335;SDS011;62755;-33.398;-70.572;2023-08-06T01:24:46;48.05;;;29.40;;
74335;SDS011;62755;-33.398;-70.572;2023-08-06T01:27:20;59.20;;;33.58;;
74335;SDS011;62755;-33.398;-70.572;2023-08-06T01:29:56;59.45;;;32.92;;
74335;SDS011;62755;-33.398;-70.572;2023-08-06T01:35:02;60.67;;;32.13;;
74335;SDS011;62755;-33.398;-70.572;2023-08-06T01:37:35;60.28;;;33.45;;
74335;SDS011;62755;-33.398;-70.572;2023-08-06T01:40:23;61.75;;;33.28;;
74335;SDS011;62755;-33.398;-70.572;2023-08-06T01:42:54;66.22;;;35.60;;
74335;SDS011;62755;-33.398;-70.572;2023-08-06T01:45:24;59.38;;;33.97;;
74335;SDS011;62755;-33.398;-70.572;2023-08-06T01:47:53;67.22;;;37.50;;
74335;SDS011;62755;-33.398;-70.572;2023-08-06T01:50:22;65.97;;;38.92;;
74335;SDS011;62755;-33.398;-70.572;2023-08-06T01:52:54;68.47;;;38.22;;
74335;SDS011;62755;-33.398;-70.572;2023-08-06T01:55:23;76.45;;;40.38;;
74335;SDS011;62755;-33.398;-70.572;2023-08-06T01:57:53;67.78;;;40.40;;
74335;SDS011;62755;-33.398;-70.572;2023-08-06T02:00:22;63.75;;;38.22;;
74335;SDS011;62755;-33.398;-70.572;2023-08-06T02:02:53;70.10;;;39.58;;
74335;SDS011;62755;-33.398;-70.572;2023-08-06T02:05:23;68.28;;;39.60;;
74335;SDS011;62755;-33.398;-70.572;2023-08-06T02:07:55;72.65;;;40.65;;
74335;SDS011;62755;-33.398;-70.572;2023-08-06T02:10:24;72.80;;;41.67;;
74335;SDS011;62755;-33.398;-70.572;2023-08-06T02:12:54;67.65;;;39.97;;
74335;SDS011;62755;-33.398;-70.572;2023-08-06T02:15:23;72.30;;;40.30;;
74335;SDS011;62755;-33.398;-70.572;2023-08-06T02:17:53;72.47;;;40.92;;
74335;SDS011;62755;-33.398;-70.572;2023-08-06T02:20:22;72.15;;;41.33;;
74335;SDS011;62755;-33.398;-70.572;2023-08-06T02:22:51;74.80;;;41.42;;
74335;SDS011;62755;-33.398;-70.572;2023-08-06T02:25:22;77.32;;;41.90;;
74335;SDS011;62755;-33.398;-70.572;2023-08-06T02:27:53;84.55;;;46.67;;
74335;SDS011;62755;-33.398;-70.572;2023-08-06T02:30:22;113.63;;;59.63;;
74335;SDS011;62755;-33.398;-70.572;2023-08-06T02:32:51;83.35;;;46.97;;
74335;SDS011;62755;-33.398;-70.572;2023-08-06T02:35:21;76.72;;;42.92;;
74335;SDS011;62755;-33.398;-70.572;2023-08-06T02:37:51;72.57;;;40.90;;
74335;SDS011;62755;-33.398;-70.572;2023-08-06T02:40:22;74.68;;;43.75;;
74335;SDS011;62755;-33.398;-70.572;2023-08-06T02:42:51;65.00;;;38.33;;
74335;SDS011;62755;-33.398;-70.572;2023-08-06T02:45:21;74.72;;;42.80;;
74335;SDS011;62755;-33.398;-70.572;2023-08-06T02:47:50;69.55;;;42.58;;
74335;SDS011;62755;-33.398;-70.572;2023-08-06T02:50:20;75.43;;;44.03;;
74335;SDS011;62755;-33.398;-70.572;2023-08-06T02:52:49;79.95;;;46.13;;
74335;SDS011;62755;-33.398;-70.572;2023-08-06T02:55:19;88.15;;;50.97;;
74335;SDS011;62755;-33.398;-70.572;2023-08-06T02:57:50;82.63;;;45.85;;
74335;SDS011;62755;-33.398;-70.572;2023-08-06T03:00:19;79.18;;;42.78;;
74335;SDS011;62755;-33.398;-70.572;2023-08-06T03:02:49;73.30;;;42.95;;
74335;SDS011;62755;-33.398;-70.572;2023-08-06T03:05:18;74.03;;;41.72;;
74335;SDS011;62755;-33.398;-70.572;2023-08-06T03:07:48;71.05;;;39.45;;
74335;SDS011;62755;-33.398;-70.572;2023-08-06T03:10:17;78.20;;;44.58;;
74335;SDS011;62755;-33.398;-70.572;2023-08-06T03:12:48;83.95;;;45.70;;
74335;SDS011;62755;-33.398;-70.572;2023-08-06T03:15:18;84.22;;;46.40;;
74335;SDS011;62755;-33.398;-70.572;2023-08-06T03:17:47;89.43;;;46.90;;
74335;SDS011;62755;-33.398;-70.572;2023-08-06T03:20:17;91.22;;;46.75;;
74335;SDS011;62755;-33.398;-70.572;2023-08-06T03:22:46;85.18;;;44.13;;
74335;SDS011;62755;-33.398;-70.572;2023-08-06T03:25:16;85.80;;;44.72;;
74335;SDS011;62755;-33.398;-70.572;2023-08-06T03:27:45;90.45;;;47.53;;
74335;SDS011;62755;-33.398;-70.572;2023-08-06T03:30:17;86.93;;;47.28;;
74335;SDS011;62755;-33.398;-70.572;2023-08-06T03:32:46;79.95;;;45.90;;
74335;SDS011;62755;-33.398;-70.572;2023-08-06T03:35:16;77.25;;;42.00;;
74335;SDS011;62755;-33.398;-70.572;2023-08-06T03:37:45;81.28;;;42.63;;
74335;SDS011;62755;-33.398;-70.572;2023-08-06T03:40:15;80.88;;;44.10;;
74335;SDS011;62755;-33.398;-70.572;2023-08-06T03:42:45;96.07;;;48.63;;
74335;SDS011;62755;-33.398;-70.572;2023-08-06T03:45:16;120.80;;;60.00;;
74335;SDS011;62755;-33.398;-70.572;2023-08-06T03:47:46;109.85;;;55.65;;
74335;SDS011;62755;-33.398;-70.572;2023-08-06T03:50:16;192.70;;;89.05;;
74335;SDS011;62755;-33.398;-70.572;2023-08-06T03:52:45;107.20;;;49.08;;
74335;SDS011;62755;-33.398;-70.572;2023-08-06T03:55:15;146.82;;;69.75;;
74335;SDS011;62755;-33.398;-70.572;2023-08-06T03:57:44;93.78;;;48.28;;
74335;SDS011;62755;-33.398;-70.572;2023-08-06T04:00:16;114.38;;;57.70;;
74335;SDS011;62755;-33.398;-70.572;2023-08-06T04:02:45;111.22;;;54.53;;
74335;SDS011;62755;-33.398;-70.572;2023-08-06T04:05:15;84.78;;;41.97;;
74335;SDS011;62755;-33.398;-70.572;2023-08-06T04:07:45;85.20;;;46.63;;
74335;SDS011;62755;-33.398;-70.572;2023-08-06T04:10:14;75.03;;;40.47;;
74335;SDS011;62755;-33.398;-70.572;2023-08-06T04:12:44;77.28;;;40.25;;
74335;SDS011;62755;-33.398;-70.572;2023-08-06T04:15:15;74.72;;;37.10;;
74335;SDS011;62755;-33.398;-70.572;2023-08-06T04:17:45;70.35;;;37.65;;
74335;SDS011;62755;-33.398;-70.572;2023-08-06T04:20:14;60.85;;;34.10;;
74335;SDS011;62755;-33.398;-70.572;2023-08-06T04:22:44;67.03;;;36.22;;
74335;SDS011;62755;-33.398;-70.572;2023-08-06T04:25:13;60.67;;;35.42;;
74335;SDS011;62755;-33.398;-70.572;2023-08-06T04:27:46;56.50;;;32.70;;
74335;SDS011;62755;-33.398;-70.572;2023-08-06T04:30:18;62.30;;;34.35;;
74335;SDS011;62755;-33.398;-70.572;2023-08-06T04:32:49;64.28;;;33.45;;
74335;SDS011;62755;-33.398;-70.572;2023-08-06T04:35:18;66.40;;;34.03;;
74335;SDS011;62755;-33.398;-70.572;2023-08-06T04:37:48;66.65;;;37.38;;
74335;SDS011;62755;-33.398;-70.572;2023-08-06T04:40:17;122.40;;;61.28;;
74335;SDS011;62755;-33.398;-70.572;2023-08-06T04:42:47;101.18;;;50.17;;
74335;SDS011;62755;-33.398;-70.572;2023-08-06T04:45:18;104.05;;;50.10;;
74335;SDS011;62755;-33.398;-70.572;2023-08-06T04:47:50;79.03;;;41.60;;
74335;SDS011;62755;-33.398;-70.572;2023-08-06T04:50:19;73.00;;;41.55;;
74335;SDS011;62755;-33.398;-70.572;2023-08-06T04:52:48;70.60;;;42.47;;
74335;SDS011;62755;-33.398;-70.572;2023-08-06T04:55:18;65.75;;;44.05;;
74335;SDS011;62755;-33.398;-70.572;2023-08-06T04:57:47;76.88;;;46.72;;
74335;SDS011;62755;-33.398;-70.572;2023-08-06T05:00:19;71.28;;;41.10;;
74335;SDS011;62755;-33.398;-70.572;2023-08-06T05:02:48;74.03;;;43.60;;
74335;SDS011;62755;-33.398;-70.572;2023-08-06T05:05:18;73.57;;;42.00;;
74335;SDS011;62755;-33.398;-70.572;2023-08-06T05:07:48;78.05;;;44.50;;
74335;SDS011;62755;-33.398;-70.572;2023-08-06T05:10:17;83.60;;;47.95;;
74335;SDS011;62755;-33.398;-70.572;2023-08-06T05:12:47;82.43;;;53.83;;
74335;SDS011;62755;-33.398;-70.572;2023-08-06T05:15:18;89.03;;;54.40;;
74335;SDS011;62755;-33.398;-70.572;2023-08-06T05:17:48;87.75;;;49.33;;
74335;SDS011;62755;-33.398;-70.572;2023-08-06T05:20:17;71.15;;;41.00;;
74335;SDS011;62755;-33.398;-70.572;2023-08-06T05:22:46;79.32;;;46.25;;
74335;SDS011;62755;-33.398;-70.572;2023-08-06T05:25:17;68.10;;;42.22;;
74335;SDS011;62755;-33.398;-70.572;2023-08-06T05:27:46;66.65;;;40.25;;
74335;SDS011;62755;-33.398;-70.572;2023-08-06T05:30:15;63.72;;;37.92;;
74335;SDS011;62755;-33.398;-70.572;2023-08-06T05:32:47;73.60;;;41.65;;
74335;SDS011;62755;-33.398;-70.572;2023-08-06T05:35:16;69.25;;;42.60;;
74335;SDS011;62755;-33.398;-70.572;2023-08-06T05:37:46;73.38;;;41.58;;
74335;SDS011;62755;-33.398;-70.572;2023-08-06T05:40:15;71.82;;;40.03;;
74335;SDS011;62755;-33.398;-70.572;2023-08-06T05:42:45;71.15;;;39.08;;
74335;SDS011;62755;-33.398;-70.572;2023-08-06T05:45:14;76.85;;;38.85;;
74335;SDS011;62755;-33.398;-70.572;2023-08-06T05:47:46;64.60;;;39.70;;
74335;SDS011;62755;-33.398;-70.572;2023-08-06T05:50:16;62.33;;;38.22;;
74335;SDS011;62755;-33.398;-70.572;2023-08-06T05:52:46;61.72;;;34.38;;
74335;SDS011;62755;-33.398;-70.572;2023-08-06T05:55:16;61.45;;;36.08;;
74335;SDS011;62755;-33.398;-70.572;2023-08-06T05:57:45;61.30;;;34.97;;
74335;SDS011;62755;-33.398;-70.572;2023-08-06T06:00:15;57.20;;;34.25;;
74335;SDS011;62755;-33.398;-70.572;2023-08-06T06:02:46;59.20;;;33.15;;
74335;SDS011;62755;-33.398;-70.572;2023-08-06T06:05:15;54.97;;;33.45;;
74335;SDS011;62755;-33.398;-70.572;2023-08-06T06:07:45;54.28;;;35.13;;
74335;SDS011;62755;-33.398;-70.572;2023-08-06T06:10:14;55.20;;;32.08;;
74335;SDS011;62755;-33.398;-70.572;2023-08-06T06:12:44;48.35;;;31.83;;
74335;SDS011;62755;-33.398;-70.572;2023-08-06T06:15:13;52.35;;;29.70;;
74335;SDS011;62755;-33.398;-70.572;2023-08-06T06:17:43;49.85;;;31.95;;
74335;SDS011;62755;-33.398;-70.572;2023-08-06T06:20:14;49.50;;;31.48;;
74335;SDS011;62755;-33.398;-70.572;2023-08-06T06:22:43;48.67;;;29.50;;
74335;SDS011;62755;-33.398;-70.572;2023-08-06T06:25:13;52.50;;;31.13;;
74335;SDS011;62755;-33.398;-70.572;2023-08-06T06:27:42;48.95;;;30.02;;
74335;SDS011;62755;-33.398;-70.572;2023-08-06T06:30:12;46.40;;;28.48;;
74335;SDS011;62755;-33.398;-70.572;2023-08-06T06:32:41;47.90;;;31.40;;
74335;SDS011;62755;-33.398;-70.572;2023-08-06T06:35:11;50.97;;;30.73;;
74335;SDS011;62755;-33.398;-70.572;2023-08-06T06:37:42;47.45;;;30.60;;
74335;SDS011;62755;-33.398;-70.572;2023-08-06T06:40:11;52.92;;;33.35;;
74335;SDS011;62755;-33.398;-70.572;2023-08-06T06:42:41;59.58;;;36.10;;
74335;SDS011;62755;-33.398;-70.572;2023-08-06T06:45:10;60.67;;;36.28;;
74335;SDS011;62755;-33.398;-70.572;2023-08-06T06:47:39;56.03;;;37.05;;
74335;SDS011;62755;-33.398;-70.572;2023-08-06T06:50:09;62.20;;;37.65;;
74335;SDS011;62755;-33.398;-70.572;2023-08-06T06:52:40;62.15;;;39.28;;
74335;SDS011;62755;-33.398;-70.572;2023-08-06T06:55:10;63.72;;;40.15;;
74335;SDS011;62755;-33.398;-70.572;2023-08-06T06:57:39;60.30;;;36.83;;
74335;SDS011;62755;-33.398;-70.572;2023-08-06T07:00:09;63.53;;;41.70;;
74335;SDS011;62755;-33.398;-70.572;2023-08-06T07:02:39;59.80;;;36.17;;
74335;SDS011;62755;-33.398;-70.572;2023-08-06T07:05:08;62.95;;;39.00;;
74335;SDS011;62755;-33.398;-70.572;2023-08-06T07:07:38;59.60;;;40.13;;
74335;SDS011;62755;-33.398;-70.572;2023-08-06T07:10:09;64.15;;;39.53;;
74335;SDS011;62755;-33.398;-70.572;2023-08-06T07:12:39;62.45;;;39.30;;
74335;SDS011;62755;-33.398;-70.572;2023-08-06T07:15:09;69.43;;;40.70;;
74335;SDS011;62755;-33.398;-70.572;2023-08-06T07:17:38;63.05;;;40.95;;
74335;SDS011;62755;-33.398;-70.572;2023-08-06T07:20:08;65.22;;;41.10;;
74335;SDS011;62755;-33.398;-70.572;2023-08-06T07:22:38;62.67;;;40.10;;
74335;SDS011;62755;-33.398;-70.572;2023-08-06T07:25:09;67.32;;;40.25;;
74335;SDS011;62755;-33.398;-70.572;2023-08-06T07:27:38;59.85;;;38.00;;
74335;SDS011;62755;-33.398;-70.572;2023-08-06T07:30:08;60.83;;;36.78;;
74335;SDS011;62755;-33.398;-70.572;2023-08-06T07:32:38;65.82;;;36.58;;
74335;SDS011;62755;-33.398;-70.572;2023-08-06T07:35:07;64.78;;;39.03;;
74335;SDS011;62755;-33.398;-70.572;2023-08-06T07:37:40;68.00;;;39.58;;
74335;SDS011;62755;-33.398;-70.572;2023-08-06T07:40:10;63.13;;;39.55;;
74335;SDS011;62755;-33.398;-70.572;2023-08-06T07:42:40;64.30;;;38.45;;
74335;SDS011;62755;-33.398;-70.572;2023-08-06T07:45:09;58.72;;;37.88;;
74335;SDS011;62755;-33.398;-70.572;2023-08-06T07:47:39;65.50;;;37.53;;
74335;SDS011;62755;-33.398;-70.572;2023-08-06T07:50:09;57.92;;;36.25;;
74335;SDS011;62755;-33.398;-70.572;2023-08-06T07:52:40;69.35;;;38.05;;
74335;SDS011;62755;-33.398;-70.572;2023-08-06T07:55:09;64.72;;;36.47;;
74335;SDS011;62755;-33.398;-70.572;2023-08-06T07:57:39;59.88;;;35.13;;
74335;SDS011;62755;-33.398;-70.572;2023-08-06T08:00:09;55.08;;;32.97;;
74335;SDS011;62755;-33.398;-70.572;2023-08-06T08:02:38;58.47;;;35.25;;
74335;SDS011;62755;-33.398;-70.572;2023-08-06T08:05:08;59.05;;;35.55;;
74335;SDS011;62755;-33.398;-70.572;2023-08-06T08:07:37;55.53;;;32.65;;
74335;SDS011;62755;-33.398;-70.572;2023-08-06T08:10:09;52.58;;;34.97;;
74335;SDS011;62755;-33.398;-70.572;2023-08-06T08:12:39;58.20;;;34.05;;
74335;SDS011;62755;-33.398;-70.572;2023-08-06T08:15:09;56.45;;;35.90;;
74335;SDS011;62755;-33.398;-70.572;2023-08-06T08:17:38;54.25;;;31.52;;
74335;SDS011;62755;-33.398;-70.572;2023-08-06T08:20:08;56.15;;;32.90;;
74335;SDS011;62755;-33.398;-70.572;2023-08-06T08:22:38;63.95;;;34.38;;
74335;SDS011;62755;-33.398;-70.572;2023-08-06T08:25:09;58.20;;;32.25;;
74335;SDS011;62755;-33.398;-70.572;2023-08-06T08:27:39;61.45;;;35.42;;
74335;SDS011;62755;-33.398;-70.572;2023-08-06T08:30:08;56.25;;;33.80;;
74335;SDS011;62755;-33.398;-70.572;2023-08-06T08:32:38;57.28;;;34.00;;
74335;SDS011;62755;-33.398;-70.572;2023-08-06T08:35:08;55.72;;;32.72;;
74335;SDS011;62755;-33.398;-70.572;2023-08-06T08:37:40;60.88;;;34.22;;
74335;SDS011;62755;-33.398;-70.572;2023-08-06T08:40:09;58.50;;;34.17;;
74335;SDS011;62755;-33.398;-70.572;2023-08-06T08:42:39;58.40;;;31.55;;
74335;SDS011;62755;-33.398;-70.572;2023-08-06T08:45:10;58.25;;;33.15;;
74335;SDS011;62755;-33.398;-70.572;2023-08-06T08:47:41;59.85;;;34.47;;
74335;SDS011;62755;-33.398;-70.572;2023-08-06T08:50:12;57.13;;;33.55;;
74335;SDS011;62755;-33.398;-70.572;2023-08-06T08:52:43;54.53;;;31.90;;
74335;SDS011;62755;-33.398;-70.572;2023-08-06T08:55:15;57.10;;;30.60;;
74335;SDS011;62755;-33.398;-70.572;2023-08-06T08:57:44;52.95;;;31.45;;
74335;SDS011;62755;-33.398;-70.572;2023-08-06T09:00:14;54.33;;;31.40;;
74335;SDS011;62755;-33.398;-70.572;2023-08-06T09:02:43;51.50;;;29.77;;
74335;SDS011;62755;-33.398;-70.572;2023-08-06T09:05:13;58.38;;;33.20;;
74335;SDS011;62755;-33.398;-70.572;2023-08-06T09:07:46;54.40;;;30.45;;
74335;SDS011;62755;-33.398;-70.572;2023-08-06T09:10:17;59.13;;;34.20;;
74335;SDS011;62755;-33.398;-70.572;2023-08-06T09:12:49;66.05;;;35.42;;
74335;SDS011;62755;-33.398;-70.572;2023-08-06T09:15:20;55.45;;;32.03;;
74335;SDS011;62755;-33.398;-70.572;2023-08-06T09:17:53;54.83;;;33.47;;
74335;SDS011;62755;-33.398;-70.572;2023-08-06T09:20:23;61.40;;;35.30;;
74335;SDS011;62755;-33.398;-70.572;2023-08-06T09:22:54;61.28;;;33.30;;
74335;SDS011;62755;-33.398;-70.572;2023-08-06T09:25:24;65.03;;;34.15;;
74335;SDS011;62755;-33.398;-70.572;2023-08-06T09:27:54;61.92;;;32.05;;
74335;SDS011;62755;-33.398;-70.572;2023-08-06T09:30:30;58.03;;;34.08;;
74335;SDS011;62755;-33.398;-70.572;2023-08-06T09:33:01;59.08;;;32.58;;
74335;SDS011;62755;-33.398;-70.572;2023-08-06T09:35:30;60.55;;;34.50;;
74335;SDS011;62755;-33.398;-70.572;2023-08-06T09:38:07;61.10;;;33.70;;
74335;SDS011;62755;-33.398;-70.572;2023-08-06T09:40:37;66.80;;;35.38;;
74335;SDS011;62755;-33.398;-70.572;2023-08-06T09:43:07;58.53;;;33.05;;
74335;SDS011;62755;-33.398;-70.572;2023-08-06T09:45:39;63.95;;;34.30;;
74335;SDS011;62755;-33.398;-70.572;2023-08-06T09:48:09;57.13;;;31.88;;
74335;SDS011;62755;-33.398;-70.572;2023-08-06T09:50:39;59.08;;;33.00;;
74335;SDS011;62755;-33.398;-70.572;2023-08-06T09:53:10;64.68;;;35.63;;
74335;SDS011;62755;-33.398;-70.572;2023-08-06T09:55:41;68.15;;;36.15;;
74335;SDS011;62755;-33.398;-70.572;2023-08-06T09:58:10;72.65;;;37.38;;
74335;SDS011;62755;-33.398;-70.572;2023-08-06T10:03:15;73.30;;;37.03;;
74335;SDS011;62755;-33.398;-70.572;2023-08-06T10:05:45;70.25;;;36.35;;
74335;SDS011;62755;-33.398;-70.572;2023-08-06T10:08:17;62.00;;;35.40;;
74335;SDS011;62755;-33.398;-70.572;2023-08-06T10:10:46;73.10;;;36.03;;
74335;SDS011;62755;-33.398;-70.572;2023-08-06T10:13:16;71.95;;;39.72;;
74335;SDS011;62755;-33.398;-70.572;2023-08-06T10:15:49;75.97;;;38.10;;
74335;SDS011;62755;-33.398;-70.572;2023-08-06T10:18:20;86.25;;;42.72;;
74335;SDS011;62755;-33.398;-70.572;2023-08-06T10:20:50;88.45;;;44.80;;
74335;SDS011;62755;-33.398;-70.572;2023-08-06T10:23:21;82.57;;;43.03;;
74335;SDS011;62755;-33.398;-70.572;2023-08-06T10:26:04;85.63;;;42.38;;
74335;SDS011;62755;-33.398;-70.572;2023-08-06T10:28:37;83.93;;;45.08;;
74335;SDS011;62755;-33.398;-70.572;2023-08-06T10:31:07;83.55;;;43.65;;
74335;SDS011;62755;-33.398;-70.572;2023-08-06T10:33:42;81.35;;;43.50;;
74335;SDS011;62755;-33.398;-70.572;2023-08-06T10:36:12;84.70;;;44.03;;
74335;SDS011;62755;-33.398;-70.572;2023-08-06T10:38:47;76.72;;;42.15;;
74335;SDS011;62755;-33.398;-70.572;2023-08-06T10:41:21;87.30;;;46.47;;
74335;SDS011;62755;-33.398;-70.572;2023-08-06T10:43:51;79.15;;;43.40;;
74335;SDS011;62755;-33.398;-70.572;2023-08-06T10:46:33;82.45;;;45.65;;
74335;SDS011;62755;-33.398;-70.572;2023-08-06T10:49:02;82.95;;;44.40;;
74335;SDS011;62755;-33.398;-70.572;2023-08-06T10:51:33;90.47;;;45.42;;
74335;SDS011;62755;-33.398;-70.572;2023-08-06T10:54:05;80.97;;;44.78;;
74335;SDS011;62755;-33.398;-70.572;2023-08-06T10:56:39;81.93;;;41.97;;
74335;SDS011;62755;-33.398;-70.572;2023-08-06T10:59:10;78.40;;;42.45;;
74335;SDS011;62755;-33.398;-70.572;2023-08-06T11:01:43;80.68;;;41.13;;
74335;SDS011;62755;-33.398;-70.572;2023-08-06T11:04:12;84.20;;;42.95;;
74335;SDS011;62755;-33.398;-70.572;2023-08-06T11:06:43;80.03;;;42.78;;
74335;SDS011;62755;-33.398;-70.572;2023-08-06T11:09:14;76.18;;;41.75;;
74335;SDS011;62755;-33.398;-70.572;2023-08-06T11:11:43;79.35;;;43.00;;
74335;SDS011;62755;-33.398;-70.572;2023-08-06T11:14:15;82.88;;;44.97;;
74335;SDS011;62755;-33.398;-70.572;2023-08-06T11:16:44;82.80;;;45.28;;
74335;SDS011;62755;-33.398;-70.572;2023-08-06T11:19:13;87.70;;;44.53;;
74335;SDS011;62755;-33.398;-70.572;2023-08-06T11:21:43;82.03;;;43.58;;
74335;SDS011;62755;-33.398;-70.572;2023-08-06T11:24:15;80.75;;;43.95;;
74335;SDS011;62755;-33.398;-70.572;2023-08-06T11:26:45;92.45;;;47.05;;
74335;SDS011;62755;-33.398;-70.572;2023-08-06T11:29:15;86.32;;;43.95;;
74335;SDS011;62755;-33.398;-70.572;2023-08-06T11:31:45;82.13;;;42.42;;
74335;SDS011;62755;-33.398;-70.572;2023-08-06T11:34:14;86.10;;;40.78;;
74335;SDS011;62755;-33.398;-70.572;2023-08-06T11:36:44;73.38;;;39.92;;
74335;SDS011;62755;-33.398;-70.572;2023-08-06T11:39:15;78.20;;;38.20;;
74335;SDS011;62755;-33.398;-70.572;2023-08-06T11:41:44;72.70;;;39.63;;
74335;SDS011;62755;-33.398;-70.572;2023-08-06T11:44:14;74.90;;;37.75;;
74335;SDS011;62755;-33.398;-70.572;2023-08-06T11:46:50;70.43;;;36.85;;
74335;SDS011;62755;-33.398;-70.572;2023-08-06T11:49:22;67.00;;;35.05;;
74335;SDS011;62755;-33.398;-70.572;2023-08-06T11:52:08;76.25;;;37.15;;
74335;SDS011;62755;-33.398;-70.572;2023-08-06T11:54:40;73.53;;;36.53;;
74335;SDS011;62755;-33.398;-70.572;2023-08-06T11:57:10;65.80;;;37.10;;
74335;SDS011;62755;-33.398;-70.572;2023-08-06T11:59:40;72.95;;;38.88;;
74335;SDS011;62755;-33.398;-70.572;2023-08-06T12:02:10;65.78;;;36.42;;
74335;SDS011;62755;-33.398;-70.572;2023-08-06T12:04:58;63.55;;;36.53;;
74335;SDS011;62755;-33.398;-70.572;2023-08-06T12:07:30;67.20;;;37.17;;
74335;SDS011;62755;-33.398;-70.572;2023-08-06T12:10:02;69.50;;;37.08;;
74335;SDS011;62755;-33.398;-70.572;2023-08-06T12:12:32;73.40;;;38.03;;
74335;SDS011;62755;-33.398;-70.572;2023-08-06T12:15:03;71.07;;;36.92;;
74335;SDS011;62755;-33.398;-70.572;2023-08-06T12:17:34;69.25;;;36.72;;
74335;SDS011;62755;-33.398;-70.572;2023-08-06T12:20:04;75.97;;;38.35;;
74335;SDS011;62755;-33.398;-70.572;2023-08-06T12:22:34;71.43;;;37.95;;
74335;SDS011;62755;-33.398;-70.572;2023-08-06T12:25:07;66.10;;;36.58;;
74335;SDS011;62755;-33.398;-70.572;2023-08-06T12:27:38;70.03;;;37.85;;
74335;SDS011;62755;-33.398;-70.572;2023-08-06T12:30:08;67.43;;;36.72;;
74335;SDS011;62755;-33.398;-70.572;2023-08-06T12:32:38;67.70;;;36.58;;
74335;SDS011;62755;-33.398;-70.572;2023-08-06T12:35:08;68.93;;;38.00;;
74335;SDS011;62755;-33.398;-70.572;2023-08-06T12:37:38;67.68;;;35.42;;
74335;SDS011;62755;-33.398;-70.572;2023-08-06T12:40:11;65.22;;;36.25;;
74335;SDS011;62755;-33.398;-70.572;2023-08-06T12:42:40;70.72;;;35.97;;
74335;SDS011;62755;-33.398;-70.572;2023-08-06T12:45:10;63.08;;;35.45;;
74335;SDS011;62755;-33.398;-70.572;2023-08-06T12:47:40;69.50;;;37.95;;
74335;SDS011;62755;-33.398;-70.572;2023-08-06T12:50:09;65.45;;;37.90;;
74335;SDS011;62755;-33.398;-70.572;2023-08-06T12:52:39;65.75;;;36.55;;
74335;SDS011;62755;-33.398;-70.572;2023-08-06T12:55:10;63.70;;;36.05;;
74335;SDS011;62755;-33.398;-70.572;2023-08-06T12:57:39;65.07;;;36.08;;
74335;SDS011;62755;-33.398;-70.572;2023-08-06T13:00:09;65.00;;;35.65;;
74335;SDS011;62755;-33.398;-70.572;2023-08-06T13:02:39;65.68;;;37.42;;
74335;SDS011;62755;-33.398;-70.572;2023-08-06T13:05:08;78.50;;;41.55;;
74335;SDS011;62755;-33.398;-70.572;2023-08-06T13:07:38;68.80;;;38.20;;
74335;SDS011;62755;-33.398;-70.572;2023-08-06T13:10:07;69.03;;;36.00;;
74335;SDS011;62755;-33.398;-70.572;2023-08-06T13:12:38;74.00;;;38.58;;
74335;SDS011;62755;-33.398;-70.572;2023-08-06T13:15:08;73.47;;;39.58;;
74335;SDS011;62755;-33.398;-70.572;2023-08-06T13:17:38;69.95;;;37.55;;
74335;SDS011;62755;-33.398;-70.572;2023-08-06T13:20:07;71.53;;;39.05;;
74335;SDS011;62755;-33.398;-70.572;2023-08-06T13:22:37;71.50;;;39.38;;
74335;SDS011;62755;-33.398;-70.572;2023-08-06T13:25:06;70.35;;;38.42;;
74335;SDS011;62755;-33.398;-70.572;2023-08-06T13:27:38;71.80;;;42.58;;
74335;SDS011;62755;-33.398;-70.572;2023-08-06T13:30:08;71.95;;;42.13;;
74335;SDS011;62755;-33.398;-70.572;2023-08-06T13:32:38;70.28;;;39.05;;
74335;SDS011;62755;-33.398;-70.572;2023-08-06T13:35:07;64.75;;;41.42;;
74335;SDS011;62755;-33.398;-70.572;2023-08-06T13:37:37;63.95;;;38.03;;
74335;SDS011;62755;-33.398;-70.572;2023-08-06T13:40:07;68.63;;;40.65;;
74335;SDS011;62755;-33.398;-70.572;2023-08-06T13:42:38;61.05;;;38.45;;
74335;SDS011;62755;-33.398;-70.572;2023-08-06T13:45:08;66.38;;;40.20;;
74335;SDS011;62755;-33.398;-70.572;2023-08-06T13:47:38;65.20;;;38.30;;
74335;SDS011;62755;-33.398;-70.572;2023-08-06T13:50:07;59.75;;;38.42;;
74335;SDS011;62755;-33.398;-70.572;2023-08-06T13:52:37;67.15;;;37.83;;
74335;SDS011;62755;-33.398;-70.572;2023-08-06T13:55:07;62.92;;;39.28;;
74335;SDS011;62755;-33.398;-70.572;2023-08-06T13:57:38;60.15;;;37.65;;
74335;SDS011;62755;-33.398;-70.572;2023-08-06T14:00:08;61.28;;;35.95;;
74335;SDS011;62755;-33.398;-70.572;2023-08-06T14:02:38;56.67;;;36.00;;
74335;SDS011;62755;-33.398;-70.572;2023-08-06T14:05:09;58.40;;;37.40;;
74335;SDS011;62755;-33.398;-70.572;2023-08-06T14:07:39;61.63;;;39.17;;